createdAt,value
2019-01-08T00:00:35.398Z,65.90
2019-01-08T00:05:38.697Z,64.97
2019-01-08T00:10:41.966Z,65.65
2019-01-08T00:15:45.340Z,65.69
2019-01-08T00:20:49.036Z,65.50
2019-01-08T00:25:53.386Z,65.70
2019-01-08T00:30:56.760Z,65.50
2019-01-08T00:36:00.173Z,65.99
2019-01-08T00:41:03.446Z,65.68
2019-01-08T00:46:06.724Z,66.23
2019-01-08T00:51:10.052Z,66.88
2019-01-08T00:56:13.409Z,67.52
2019-01-08T01:01:16.697Z,67.71
2019-01-08T01:06:20.023Z,68.05
2019-01-08T01:11:23.293Z,68.09
2019-01-08T01:16:26.657Z,68.26
2019-01-08T01:21:30.015Z,68.06
2019-01-08T01:26:33.284Z,68.37
2019-01-08T01:31:36.577Z,69.00
2019-01-08T01:36:39.948Z,69.11
2019-01-08T01:41:43.552Z,69.64
2019-01-08T01:46:47.091Z,69.79
2019-01-08T01:51:50.350Z,69.90
2019-01-08T01:56:53.709Z,69.87
2019-01-08T02:01:57.140Z,69.66
2019-01-08T02:07:00.403Z,69.68
2019-01-08T02:12:03.680Z,69.70
2019-01-08T02:17:06.988Z,69.79
2019-01-08T02:22:10.255Z,69.46
2019-01-08T02:27:13.678Z,69.60
2019-01-08T02:32:16.954Z,69.91
2019-01-08T02:37:20.338Z,70.04
2019-01-08T02:42:23.621Z,70.12
2019-01-08T02:47:26.877Z,70.24
2019-01-08T02:52:30.245Z,70.28
2019-01-08T02:57:33.587Z,70.21
2019-01-08T03:02:37.076Z,70.27
2019-01-08T03:07:40.336Z,70.13
2019-01-08T03:12:43.688Z,70.24
2019-01-08T03:17:47.090Z,70.10
2019-01-08T03:22:50.364Z,69.85
2019-01-08T03:27:53.677Z,69.70
2019-01-08T03:32:56.981Z,69.98
2019-01-08T03:38:00.466Z,69.91
2019-01-08T03:43:03.882Z,69.91
2019-01-08T03:48:07.175Z,70.01
2019-01-08T03:53:10.604Z,70.35
2019-01-08T03:58:13.954Z,70.27
2019-01-08T04:03:17.228Z,70.27
2019-01-08T04:08:20.558Z,70.25
2019-01-08T04:13:23.925Z,70.22
2019-01-08T04:18:27.194Z,70.12
2019-01-08T04:23:30.546Z,70.46
2019-01-08T04:28:33.799Z,70.74
2019-01-08T04:33:37.174Z,70.48
2019-01-08T04:38:40.438Z,70.77
2019-01-08T04:43:44.689Z,70.72
2019-01-08T04:48:48.005Z,70.55
2019-01-08T04:53:51.268Z,70.69
2019-01-08T04:58:54.530Z,70.60
2019-01-08T05:03:57.824Z,70.33
2019-01-08T05:09:01.277Z,70.08
2019-01-08T05:14:04.571Z,69.52
2019-01-08T05:19:07.815Z,69.56
2019-01-08T05:24:11.297Z,69.47
2019-01-08T05:29:14.621Z,69.46
2019-01-08T05:34:17.872Z,69.07
2019-01-08T05:39:21.284Z,69.09
2019-01-08T05:44:24.542Z,69.59
2019-01-08T05:49:27.827Z,69.48
2019-01-08T05:54:31.200Z,69.20
2019-01-08T05:59:34.638Z,68.95
2019-01-08T06:04:37.898Z,68.79
2019-01-08T06:09:41.316Z,69.13
2019-01-08T06:14:44.573Z,68.71
2019-01-08T06:19:47.829Z,68.74
2019-01-08T06:24:51.137Z,68.84
2019-01-08T06:29:54.464Z,69.01
2019-01-08T06:34:57.712Z,69.10
2019-01-08T06:40:00.964Z,68.84
2019-01-08T06:45:04.483Z,69.12
2019-01-08T06:50:08.565Z,69.02
2019-01-08T06:55:11.864Z,69.14
2019-01-08T07:00:15.247Z,69.22
2019-01-08T07:05:18.509Z,68.78
2019-01-08T07:10:21.845Z,68.78
2019-01-08T07:15:25.100Z,68.24
2019-01-08T07:20:28.363Z,68.63
2019-01-08T07:25:31.709Z,68.40
2019-01-08T07:30:41.706Z,68.05
2019-01-08T07:35:41.909Z,68.15
2019-01-08T07:40:45.337Z,68.40
2019-01-08T07:45:48.608Z,68.00
2019-01-08T07:50:51.937Z,68.31
2019-01-08T07:55:55.381Z,68.25
2019-01-08T08:00:58.776Z,67.89
2019-01-08T08:06:02.050Z,68.24
2019-01-08T08:11:05.317Z,67.89
2019-01-08T08:16:08.573Z,68.20
2019-01-08T08:21:12.033Z,67.85
2019-01-08T08:26:15.300Z,67.72
2019-01-08T08:31:18.560Z,67.48
2019-01-08T08:36:21.976Z,67.08
2019-01-08T08:41:25.399Z,67.49
2019-01-08T08:46:28.698Z,67.43
2019-01-08T08:51:32.102Z,66.72
2019-01-08T08:56:35.606Z,66.37
2019-01-08T09:01:39.043Z,65.78
2019-01-08T09:06:42.509Z,65.64
2019-01-08T09:11:45.878Z,65.21
2019-01-08T09:16:49.295Z,64.85
2019-01-08T09:21:52.689Z,64.48
2019-01-08T09:26:56.017Z,63.69
2019-01-08T09:31:59.404Z,63.51
2019-01-08T09:37:02.777Z,62.97
2019-01-08T09:42:06.190Z,63.41
2019-01-08T09:47:09.645Z,63.78
2019-01-08T09:52:12.971Z,63.68
2019-01-08T09:57:16.486Z,63.11
2019-01-08T10:02:19.781Z,62.88
2019-01-08T10:07:23.121Z,62.23
2019-01-08T10:12:26.515Z,62.18
2019-01-08T10:17:30.032Z,63.09
2019-01-08T10:22:33.403Z,62.92
2019-01-08T10:27:36.782Z,62.58
2019-01-08T10:32:40.229Z,62.59
2019-01-08T10:37:43.583Z,62.95
2019-01-08T10:42:47.003Z,63.00
2019-01-08T10:47:50.412Z,63.28
2019-01-08T10:52:53.829Z,62.73
2019-01-08T10:57:57.267Z,62.70
2019-01-08T11:03:00.669Z,62.78
2019-01-08T11:08:03.924Z,62.93
2019-01-08T11:13:07.429Z,62.08
2019-01-08T11:18:10.797Z,62.32
2019-01-08T11:23:14.211Z,62.58
2019-01-08T11:28:18.719Z,62.20
2019-01-08T11:33:21.982Z,62.32
2019-01-08T11:38:25.263Z,62.10
2019-01-08T11:43:28.530Z,62.49
2019-01-08T11:48:31.915Z,62.72
2019-01-08T11:53:36.711Z,62.91
2019-01-08T11:58:38.792Z,62.78
2019-01-08T12:09:10.293Z,63.43
2019-01-08T12:14:13.677Z,63.42
2019-01-08T12:19:17.028Z,63.54
2019-01-08T12:24:20.286Z,63.86
2019-01-08T12:29:23.679Z,63.63
2019-01-08T12:34:27.250Z,63.94
2019-01-08T12:39:30.539Z,63.49
2019-01-08T12:44:33.808Z,64.24
2019-01-08T12:49:37.370Z,64.02
2019-01-08T12:54:40.685Z,64.00
2019-01-08T12:59:44.033Z,64.83
2019-01-08T13:04:47.466Z,65.44
2019-01-08T13:09:50.728Z,65.52
2019-01-08T13:14:54.022Z,65.42
2019-01-08T13:19:57.380Z,66.27
2019-01-08T13:25:00.632Z,65.34
2019-01-08T13:30:04.142Z,66.13
2019-01-08T13:35:07.568Z,65.76
2019-01-08T13:40:11.204Z,66.23
2019-01-08T13:45:14.664Z,65.56
2019-01-08T13:50:18.278Z,65.95
2019-01-08T13:55:21.957Z,65.91
2019-01-08T14:00:25.691Z,66.34
2019-01-08T14:05:30.483Z,65.55
2019-01-08T14:10:33.817Z,65.92
2019-01-08T14:15:37.131Z,66.12
2019-01-08T14:20:40.621Z,66.37
2019-01-08T14:25:43.983Z,67.23
2019-01-08T14:30:47.437Z,67.02
2019-01-08T14:35:50.723Z,67.00
2019-01-08T14:40:54.132Z,67.42
2019-01-08T14:45:57.622Z,66.66
2019-01-08T14:51:01.040Z,67.74
2019-01-08T14:56:05.540Z,67.75
2019-01-08T15:01:09.084Z,67.51
2019-01-08T15:06:12.652Z,66.83
2019-01-08T15:11:16.071Z,67.41
2019-01-08T15:16:19.452Z,67.28
2019-01-08T15:21:22.961Z,67.22
2019-01-08T15:26:26.557Z,67.47
2019-01-08T15:31:31.000Z,67.70
2019-01-08T15:36:34.444Z,67.67
2019-01-08T15:41:37.775Z,67.22
2019-01-08T15:46:41.323Z,67.74
2019-01-08T15:51:44.814Z,67.37
2019-01-08T15:56:48.344Z,67.22
2019-01-08T16:01:51.757Z,67.36
2019-01-08T16:06:55.200Z,67.57
2019-01-08T16:11:58.793Z,67.23
2019-01-08T16:17:02.255Z,67.34
2019-01-08T16:22:05.631Z,66.96
2019-01-08T16:27:09.046Z,66.82
2019-01-08T16:32:12.395Z,67.11
2019-01-08T16:37:19.758Z,66.50
2019-01-08T16:42:23.128Z,66.93
2019-01-08T16:47:26.479Z,65.53
2019-01-08T16:52:29.832Z,66.72
2019-01-08T16:57:33.201Z,66.08
2019-01-08T17:02:36.540Z,66.25
2019-01-08T17:07:40.022Z,66.76
2019-01-08T17:12:43.576Z,65.82
2019-01-08T17:17:47.003Z,66.18
2019-01-08T17:22:50.379Z,65.56
2019-01-08T17:27:53.854Z,65.34
2019-01-08T17:32:57.306Z,64.83
2019-01-08T17:38:01.606Z,65.31
2019-01-08T17:43:05.072Z,64.85
2019-01-08T17:48:08.588Z,65.01
2019-01-08T17:53:11.942Z,65.67
2019-01-08T17:58:30.733Z,65.85
2019-01-08T18:03:42.328Z,65.28
2019-01-08T18:08:37.553Z,64.97
2019-01-08T18:13:41.099Z,65.52
2019-01-08T18:18:44.506Z,65.87
2019-01-08T18:23:48.022Z,65.30
2019-01-08T18:28:51.635Z,65.04
2019-01-08T18:33:55.188Z,63.96
2019-01-08T18:38:58.888Z,64.00
2019-01-08T18:44:02.263Z,63.03
2019-01-08T18:49:07.784Z,62.44
2019-01-08T18:54:09.351Z,62.05
2019-01-08T18:59:12.765Z,62.75
2019-01-08T19:04:16.112Z,62.96
2019-01-08T19:09:31.612Z,64.44
2019-01-08T19:14:37.768Z,65.91
2019-01-08T19:19:41.343Z,65.62
2019-01-08T19:24:44.726Z,65.46
2019-01-08T19:29:48.129Z,65.39
2019-01-08T19:34:51.479Z,65.59
2019-01-08T19:39:54.851Z,65.97
2019-01-08T19:44:58.361Z,66.23
2019-01-08T19:50:01.955Z,66.28
2019-01-08T19:55:06.173Z,66.16
2019-01-08T20:00:11.360Z,65.96
2019-01-08T20:05:14.833Z,66.26
2019-01-08T20:10:18.291Z,65.97
2019-01-08T20:15:22.828Z,66.27
2019-01-08T20:20:26.259Z,65.86
2019-01-08T20:25:30.215Z,66.24
2019-01-08T20:30:34.067Z,65.57
2019-01-08T20:35:37.941Z,66.03
2019-01-08T20:40:41.628Z,66.50
2019-01-08T20:45:45.609Z,66.62
2019-01-08T20:50:49.925Z,67.24
2019-01-08T20:55:54.009Z,66.89
2019-01-08T21:00:57.528Z,67.03
2019-01-08T21:06:01.591Z,67.08
2019-01-08T21:11:06.210Z,67.00
2019-01-08T21:16:09.451Z,67.12
2019-01-08T21:21:13.076Z,66.73
2019-01-08T21:26:16.855Z,67.63
2019-01-08T21:31:20.934Z,67.77
2019-01-08T21:36:24.274Z,68.73
2019-01-08T21:41:28.222Z,68.85
2019-01-08T21:46:31.511Z,69.12
2019-01-08T21:51:35.092Z,69.20
2019-01-08T21:56:39.071Z,69.25
2019-01-08T22:01:42.620Z,69.10
2019-01-08T22:06:46.315Z,69.49
2019-01-08T22:11:50.312Z,69.72
2019-01-08T22:16:54.098Z,69.79
2019-01-08T22:21:57.363Z,69.43
2019-01-08T22:27:00.655Z,69.67
2019-01-08T22:32:04.476Z,69.55
2019-01-08T22:37:08.718Z,69.27
2019-01-08T22:42:12.207Z,69.54
2019-01-08T22:47:15.492Z,69.33
2019-01-08T22:52:18.743Z,69.10
2019-01-08T22:57:22.004Z,69.12
2019-01-08T23:02:25.303Z,69.21
2019-01-08T23:07:28.580Z,69.04
2019-01-08T23:12:31.962Z,69.18
2019-01-08T23:17:35.202Z,68.87
2019-01-08T23:22:38.624Z,69.01
2019-01-08T23:27:41.906Z,69.00
2019-01-08T23:32:45.209Z,68.92
2019-01-08T23:37:48.611Z,69.16
2019-01-08T23:42:51.863Z,68.55
2019-01-08T23:47:55.200Z,69.05
2019-01-08T23:53:06.368Z,69.07
2019-01-08T23:58:12.355Z,69.22
